Auburn, Kansas
Current Conditions -  °F | °C
As of 1:28 PM on Monday 22 Dec 2014 (Local Time) from KFOE Reporting Station
Broken Clouds Broken Clouds  
Wind Chill: 50°   Ceiling: 1800
Heat Index: 50°   Visibility: 9mi
Dew Point: 45°   Wind: 9mph
Humidity: 83%   Direction: 270°W
Pressure: 29.44"   Gusts: NA
Location:  38.91°N, 95.82°W
Report Text: KFOE 221928Z 27008KT 9SM SCT012 BKN018 BKN075 10/07 A2944 RMK AO2 T01000072
Loading
Personal Weather Stations






























Interactive Weather Map New forecast layout! Learn more

10-Day Weather Forecast

Advertisements
Track Severe Weather on mobile